sensor_id;sensor_type;location;lat;lon;timestamp;temperature;humidity
72919;SHT30;61063;55.700;26.994;2023-01-08T00:00:02;-9;72.5
72919;SHT30;61063;55.700;26.994;2023-01-08T00:05:14;-8.8;72.2
72919;SHT30;61063;55.700;26.994;2023-01-08T00:10:12;-8.8;72.4
72919;SHT30;61063;55.700;26.994;2023-01-08T00:15:14;-8.8;72.4
72919;SHT30;61063;55.700;26.994;2023-01-08T00:20:02;-8.8;72.4
72919;SHT30;61063;55.700;26.994;2023-01-08T00:25:02;-8.9;72.7
72919;SHT30;61063;55.700;26.994;2023-01-08T00:30:24;-9.1;73.5
72919;SHT30;61063;55.700;26.994;2023-01-08T00:35:24;-9;73.9
72919;SHT30;61063;55.700;26.994;2023-01-08T00:40:22;-8.9;74
72919;SHT30;61063;55.700;26.994;2023-01-08T00:45:00;-8.9;74
72919;SHT30;61063;55.700;26.994;2023-01-08T00:50:02;-8.9;74
72919;SHT30;61063;55.700;26.994;2023-01-08T00:55:14;-8.9;74.3
72919;SHT30;61063;55.700;26.994;2023-01-08T01:00:22;-8.9;74.7
72919;SHT30;61063;55.700;26.994;2023-01-08T01:04:52;-8.9;74.7
72919;SHT30;61063;55.700;26.994;2023-01-08T01:10:12;-8.8;74.8
72919;SHT30;61063;55.700;26.994;2023-01-08T01:15:14;-8.9;75
72919;SHT30;61063;55.700;26.994;2023-01-08T01:20:24;-9;75.5
72919;SHT30;61063;55.700;26.994;2023-01-08T01:25:22;-8.9;75.9
72919;SHT30;61063;55.700;26.994;2023-01-08T01:30:00;-8.9;75.9
72919;SHT30;61063;55.700;26.994;2023-01-08T01:35:24;-8.7;75.8
72919;SHT30;61063;55.700;26.994;2023-01-08T01:40:22;-8.7;76.2
72919;SHT30;61063;55.700;26.994;2023-01-08T01:45:02;-8.7;76.2
72919;SHT30;61063;55.700;26.994;2023-01-08T01:50:25;-8.6;76.2
72919;SHT30;61063;55.700;26.994;2023-01-08T01:54:50;-8.6;76.2
72919;SHT30;61063;55.700;26.994;2023-01-08T02:00:05;-8.6;76.2
72919;SHT30;61063;55.700;26.994;2023-01-08T02:05:12;-8.6;76.8
72919;SHT30;61063;55.700;26.994;2023-01-08T02:10:02;-8.6;76.8
72919;SHT30;61063;55.700;26.994;2023-01-08T02:15:12;-8.6;76.7
72919;SHT30;61063;55.700;26.994;2023-01-08T02:20:05;-8.7;76.9
72919;SHT30;61063;55.700;26.994;2023-01-08T02:25:06;-8.7;77.1
72919;SHT30;61063;55.700;26.994;2023-01-08T02:29:52;-8.8;77.4
72919;SHT30;61063;55.700;26.994;2023-01-08T02:35:16;-8.8;77.7
72919;SHT30;61063;55.700;26.994;2023-01-08T02:40:27;-8.9;77.9
72919;SHT30;61063;55.700;26.994;2023-01-08T02:45:30;-8.8;77.8
72919;SHT30;61063;55.700;26.994;2023-01-08T02:50:17;-8.8;77.7
72919;SHT30;61063;55.700;26.994;2023-01-08T02:55:18;-8.8;77.9
72919;SHT30;61063;55.700;26.994;2023-01-08T02:59:54;-8.8;77.9
72919;SHT30;61063;55.700;26.994;2023-01-08T03:05:28;-8.7;77.9
72919;SHT30;61063;55.700;26.994;2023-01-08T03:10:02;-8.7;77.9
72919;SHT30;61063;55.700;26.994;2023-01-08T03:15:28;-8.7;78
72919;SHT30;61063;55.700;26.994;2023-01-08T03:19:52;-8.7;78
72919;SHT30;61063;55.700;26.994;2023-01-08T03:24:50;-8.7;78.1
72919;SHT30;61063;55.700;26.994;2023-01-08T03:30:24;-8.4;77.4
72919;SHT30;61063;55.700;26.994;2023-01-08T03:34:40;-8.4;77.4
72919;SHT30;61063;55.700;26.994;2023-01-08T03:40:17;-8.4;77.3
72919;SHT30;61063;55.700;26.994;2023-01-08T03:45:14;-8.4;77.3
72919;SHT30;61063;55.700;26.994;2023-01-08T03:49:42;-8.4;77.3
72919;SHT30;61063;55.700;26.994;2023-01-08T03:55:26;-8.4;77.3
72919;SHT30;61063;55.700;26.994;2023-01-08T04:00:06;-8.4;77.3
72919;SHT30;61063;55.700;26.994;2023-01-08T04:05:04;-8.3;77.2
72919;SHT30;61063;55.700;26.994;2023-01-08T04:09:54;-8.3;76.9
72919;SHT30;61063;55.700;26.994;2023-01-08T04:15:16;-8.3;76.9
72919;SHT30;61063;55.700;26.994;2023-01-08T04:20:28;-8.4;77.1
72919;SHT30;61063;55.700;26.994;2023-01-08T04:24:56;-8.4;77.1
72919;SHT30;61063;55.700;26.994;2023-01-08T04:30:16;-8.2;77.1
72919;SHT30;61063;55.700;26.994;2023-01-08T04:35:28;-8.1;76.8
72919;SHT30;61063;55.700;26.994;2023-01-08T04:40:26;-8.2;76.6
72919;SHT30;61063;55.700;26.994;2023-01-08T04:45:26;-8.2;76.7
72919;SHT30;61063;55.700;26.994;2023-01-08T04:50:06;-8.2;76.7
72919;SHT30;61063;55.700;26.994;2023-01-08T04:54:54;-8.2;76.9
72919;SHT30;61063;55.700;26.994;2023-01-08T04:59:52;-8.2;77
72919;SHT30;61063;55.700;26.994;2023-01-08T05:05:18;-8.2;77.1
72919;SHT30;61063;55.700;26.994;2023-01-08T05:10:24;-8.1;77.2
72919;SHT30;61063;55.700;26.994;2023-01-08T05:14:40;-8.1;77.2
72919;SHT30;61063;55.700;26.994;2023-01-08T05:20:06;-8.2;77
72919;SHT30;61063;55.700;26.994;2023-01-08T05:25:18;-8.2;77.5
72919;SHT30;61063;55.700;26.994;2023-01-08T05:30:16;-8.2;77.5
72919;SHT30;61063;55.700;26.994;2023-01-08T05:35:24;-8.3;77.7
72919;SHT30;61063;55.700;26.994;2023-01-08T05:40:14;-8.1;77.8
72919;SHT30;61063;55.700;26.994;2023-01-08T05:45:02;-8.1;77.8
72919;SHT30;61063;55.700;26.994;2023-01-08T05:50:26;-8.1;77.5
72919;SHT30;61063;55.700;26.994;2023-01-08T05:55:28;-8.2;77.7
72919;SHT30;61063;55.700;26.994;2023-01-08T06:00:28;-8.2;77.8
72919;SHT30;61063;55.700;26.994;2023-01-08T06:05:06;-8.2;77.8
72919;SHT30;61063;55.700;26.994;2023-01-08T06:10:14;-8;77.5
72919;SHT30;61063;55.700;26.994;2023-01-08T06:14:54;-8;77.5
72919;SHT30;61063;55.700;26.994;2023-01-08T06:20:26;-8;77.4
72919;SHT30;61063;55.700;26.994;2023-01-08T06:25:26;-7.9;77.3
72919;SHT30;61063;55.700;26.994;2023-01-08T06:30:28;-8;77.3
72919;SHT30;61063;55.700;26.994;2023-01-08T06:34:42;-8;77.3
72919;SHT30;61063;55.700;26.994;2023-01-08T06:40:26;-7.9;77.1
72919;SHT30;61063;55.700;26.994;2023-01-08T06:45:28;-7.9;77.2
72919;SHT30;61063;55.700;26.994;2023-01-08T06:50:28;-7.9;77.3
72919;SHT30;61063;55.700;26.994;2023-01-08T06:55:04;-7.9;77.3
72919;SHT30;61063;55.700;26.994;2023-01-08T07:00:18;-7.8;77.4
72919;SHT30;61063;55.700;26.994;2023-01-08T07:05:18;-7.7;77.3
72919;SHT30;61063;55.700;26.994;2023-01-08T07:10:14;-7.7;77.2
72919;SHT30;61063;55.700;26.994;2023-01-08T07:15:30;-7.7;77.3
72919;SHT30;61063;55.700;26.994;2023-01-08T07:19:56;-7.7;77.3
72919;SHT30;61063;55.700;26.994;2023-01-08T07:25:04;-7.6;77.3
72919;SHT30;61063;55.700;26.994;2023-01-08T07:30:28;-7.3;77
72919;SHT30;61063;55.700;26.994;2023-01-08T07:35:28;-7.2;77
72919;SHT30;61063;55.700;26.994;2023-01-08T07:40:26;-7.1;76.8
72919;SHT30;61063;55.700;26.994;2023-01-08T07:44:42;-7.1;76.8
72919;SHT30;61063;55.700;26.994;2023-01-08T07:50:18;-7.1;76.8
72919;SHT30;61063;55.700;26.994;2023-01-08T07:55:18;-7.1;76.7
72919;SHT30;61063;55.700;26.994;2023-01-08T08:00:28;-7.1;76.8
72919;SHT30;61063;55.700;26.994;2023-01-08T08:05:26;-7.1;77
72919;SHT30;61063;55.700;26.994;2023-01-08T08:10:02;-7.1;77
72919;SHT30;61063;55.700;26.994;2023-01-08T08:14:52;-7.1;77.1
72919;SHT30;61063;55.700;26.994;2023-01-08T08:20:28;-6.9;77.1
72919;SHT30;61063;55.700;26.994;2023-01-08T08:25:28;-6.8;76.7
72919;SHT30;61063;55.700;26.994;2023-01-08T08:30:27;-6.9;76.9
72919;SHT30;61063;55.700;26.994;2023-01-08T08:35:28;-6.9;76.9
72919;SHT30;61063;55.700;26.994;2023-01-08T08:40:16;-6.7;77.1
72919;SHT30;61063;55.700;26.994;2023-01-08T08:45:18;-6.7;76.7
72919;SHT30;61063;55.700;26.994;2023-01-08T08:50:24;-6.6;76.9
72919;SHT30;61063;55.700;26.994;2023-01-08T08:55:22;-6.5;76.7
72919;SHT30;61063;55.700;26.994;2023-01-08T09:00:28;-6.5;76.6
72919;SHT30;61063;55.700;26.994;2023-01-08T09:05:04;-6.5;76.6
72919;SHT30;61063;55.700;26.994;2023-01-08T09:10:26;-6.2;76.4
72919;SHT30;61063;55.700;26.994;2023-01-08T09:15:24;-6.2;76.1
72919;SHT30;61063;55.700;26.994;2023-01-08T09:20:26;-6.2;76.2
72919;SHT30;61063;55.700;26.994;2023-01-08T09:24:42;-6.2;76.2
72919;SHT30;61063;55.700;26.994;2023-01-08T09:30:16;-6;76.1
72919;SHT30;61063;55.700;26.994;2023-01-08T09:35:16;-5.9;76.1
72919;SHT30;61063;55.700;26.994;2023-01-08T09:40:25;-5.8;76
72919;SHT30;61063;55.700;26.994;2023-01-08T09:45:29;-5.6;76.1
72919;SHT30;61063;55.700;26.994;2023-01-08T09:50:05;-5.6;76.1
72919;SHT30;61063;55.700;26.994;2023-01-08T09:54:50;-5.6;75.8
72919;SHT30;61063;55.700;26.994;2023-01-08T10:00:27;-5.6;76.2
72919;SHT30;61063;55.700;26.994;2023-01-08T10:05:09;-5.6;76.2
72919;SHT30;61063;55.700;26.994;2023-01-08T10:09:58;-5.4;75.9
72919;SHT30;61063;55.700;26.994;2023-01-08T10:14:50;-5.5;75.9
72919;SHT30;61063;55.700;26.994;2023-01-08T10:20:23;-5.6;76.7
72919;SHT30;61063;55.700;26.994;2023-01-08T10:24:52;-5.6;76.7
72919;SHT30;61063;55.700;26.994;2023-01-08T10:30:04;-5.6;76.9
72919;SHT30;61063;55.700;26.994;2023-01-08T10:34:52;-5.6;77
72919;SHT30;61063;55.700;26.994;2023-01-08T10:39:50;-5.5;77
72919;SHT30;61063;55.700;26.994;2023-01-08T10:45:23;-5.6;77.7
72919;SHT30;61063;55.700;26.994;2023-01-08T10:49:50;-5.6;77.7
72919;SHT30;61063;55.700;26.994;2023-01-08T10:54:40;-5.6;78
72919;SHT30;61063;55.700;26.994;2023-01-08T11:00:02;-5.6;78
72919;SHT30;61063;55.700;26.994;2023-01-08T11:05:28;-5.5;77.8
72919;SHT30;61063;55.700;26.994;2023-01-08T11:10:19;-5.5;77.8
72919;SHT30;61063;55.700;26.994;2023-01-08T11:15:22;-5.6;77.8
72919;SHT30;61063;55.700;26.994;2023-01-08T11:20:18;-5.5;77.7
72919;SHT30;61063;55.700;26.994;2023-01-08T11:25:04;-5.5;77.7
72919;SHT30;61063;55.700;26.994;2023-01-08T11:30:28;-5.5;77.5
72919;SHT30;61063;55.700;26.994;2023-01-08T11:35:30;-5.4;77.6
72919;SHT30;61063;55.700;26.994;2023-01-08T11:40:09;-5.4;77.6
72919;SHT30;61063;55.700;26.994;2023-01-08T11:45:04;-5.3;77.5
72919;SHT30;61063;55.700;26.994;2023-01-08T11:49:59;-5.1;77.1
72919;SHT30;61063;55.700;26.994;2023-01-08T11:54:55;-4.8;76.7
72919;SHT30;61063;55.700;26.994;2023-01-08T12:00:30;-4.7;76.1
72919;SHT30;61063;55.700;26.994;2023-01-08T12:05:21;-4.7;76.4
72919;SHT30;61063;55.700;26.994;2023-01-08T12:10:17;-4.8;76.6
72919;SHT30;61063;55.700;26.994;2023-01-08T12:15:25;-4.7;76.7
72919;SHT30;61063;55.700;26.994;2023-01-08T12:20:25;-4.6;76.7
72919;SHT30;61063;55.700;26.994;2023-01-08T12:25:25;-4.5;76.6
72919;SHT30;61063;55.700;26.994;2023-01-08T12:30:30;-4.5;76.9
72919;SHT30;61063;55.700;26.994;2023-01-08T12:35:06;-4.5;76.9
72919;SHT30;61063;55.700;26.994;2023-01-08T12:40:11;-4.6;76.9
72919;SHT30;61063;55.700;26.994;2023-01-08T12:45:27;-4.5;77.4
72919;SHT30;61063;55.700;26.994;2023-01-08T12:50:29;-4.4;77.5
72919;SHT30;61063;55.700;26.994;2023-01-08T12:55:19;-4.4;77.5
72919;SHT30;61063;55.700;26.994;2023-01-08T13:00:08;-4.4;77.5
72919;SHT30;61063;55.700;26.994;2023-01-08T13:04:56;-4.5;77.6
72919;SHT30;61063;55.700;26.994;2023-01-08T13:10:05;-4.5;77.9
72919;SHT30;61063;55.700;26.994;2023-01-08T13:15:25;-4.6;78.1
72919;SHT30;61063;55.700;26.994;2023-01-08T13:19:43;-4.6;78.1
72919;SHT30;61063;55.700;26.994;2023-01-08T13:25:25;-4.6;78.3
72919;SHT30;61063;55.700;26.994;2023-01-08T13:30:28;-4.6;78.5
72919;SHT30;61063;55.700;26.994;2023-01-08T13:35:26;-4.6;78.7
72919;SHT30;61063;55.700;26.994;2023-01-08T13:40:36;-4.7;78.7
72919;SHT30;61063;55.700;26.994;2023-01-08T13:45:12;-4.7;78.8
72919;SHT30;61063;55.700;26.994;2023-01-08T13:50:24;-4.7;78.9
72919;SHT30;61063;55.700;26.994;2023-01-08T13:54:54;-4.7;78.9
72919;SHT30;61063;55.700;26.994;2023-01-08T14:00:27;-4.7;79.1
72919;SHT30;61063;55.700;26.994;2023-01-08T14:05:25;-4.6;79.1
72919;SHT30;61063;55.700;26.994;2023-01-08T14:10:06;-4.6;79.1
72919;SHT30;61063;55.700;26.994;2023-01-08T14:14:53;-4.6;79.2
72919;SHT30;61063;55.700;26.994;2023-01-08T14:20:07;-4.6;79.1
72919;SHT30;61063;55.700;26.994;2023-01-08T14:24:55;-4.6;79.1
72919;SHT30;61063;55.700;26.994;2023-01-08T14:30:13;-4.6;79.3
72919;SHT30;61063;55.700;26.994;2023-01-08T14:35:14;-4.6;79.4
72919;SHT30;61063;55.700;26.994;2023-01-08T14:40:23;-4.6;79.4
72919;SHT30;61063;55.700;26.994;2023-01-08T14:45:05;-4.6;79.4
72919;SHT30;61063;55.700;26.994;2023-01-08T14:50:16;-4.6;79.5
72919;SHT30;61063;55.700;26.994;2023-01-08T14:55:04;-4.6;79.5
72919;SHT30;61063;55.700;26.994;2023-01-08T14:59:55;-4.6;79.8
72919;SHT30;61063;55.700;26.994;2023-01-08T15:05:12;-4.5;79.7
72919;SHT30;61063;55.700;26.994;2023-01-08T15:10:02;-4.5;79.8
72919;SHT30;61063;55.700;26.994;2023-01-08T15:15:22;-4.5;79.9
72919;SHT30;61063;55.700;26.994;2023-01-08T15:20:14;-4.5;79.9
72919;SHT30;61063;55.700;26.994;2023-01-08T15:25:18;-4.5;80
72919;SHT30;61063;55.700;26.994;2023-01-08T15:30:32;-4.6;80
72919;SHT30;61063;55.700;26.994;2023-01-08T15:34:54;-4.6;80
72919;SHT30;61063;55.700;26.994;2023-01-08T15:40:24;-4.7;80.4
72919;SHT30;61063;55.700;26.994;2023-01-08T15:45:25;-4.7;80.4
72919;SHT30;61063;55.700;26.994;2023-01-08T15:50:26;-4.7;80.6
72919;SHT30;61063;55.700;26.994;2023-01-08T15:55:09;-4.7;80.6
72919;SHT30;61063;55.700;26.994;2023-01-08T16:00:07;-4.7;80.7
72919;SHT30;61063;55.700;26.994;2023-01-08T16:05:27;-4.7;80.7
72919;SHT30;61063;55.700;26.994;2023-01-08T16:10:22;-4.8;80.9
72919;SHT30;61063;55.700;26.994;2023-01-08T16:15:13;-4.8;81
72919;SHT30;61063;55.700;26.994;2023-01-08T16:20:14;-4.8;81.1
72919;SHT30;61063;55.700;26.994;2023-01-08T16:24:56;-4.8;81.1
72919;SHT30;61063;55.700;26.994;2023-01-08T16:30:14;-4.7;81.3
72919;SHT30;61063;55.700;26.994;2023-01-08T16:35:26;-4.7;81.5
72919;SHT30;61063;55.700;26.994;2023-01-08T16:39:55;-4.7;81.5
72919;SHT30;61063;55.700;26.994;2023-01-08T16:44:52;-4.7;81.8
72919;SHT30;61063;55.700;26.994;2023-01-08T16:50:07;-4.6;81.8
72919;SHT30;61063;55.700;26.994;2023-01-08T16:55:26;-4.6;82.4
72919;SHT30;61063;55.700;26.994;2023-01-08T17:00:26;-4.5;82.5
72919;SHT30;61063;55.700;26.994;2023-01-08T17:05:16;-4.5;82.7
72919;SHT30;61063;55.700;26.994;2023-01-08T17:10:12;-4.5;82.8
72919;SHT30;61063;55.700;26.994;2023-01-08T17:15:24;-4.6;83.1
72919;SHT30;61063;55.700;26.994;2023-01-08T17:20:24;-4.7;83.3
72919;SHT30;61063;55.700;26.994;2023-01-08T17:25:24;-4.7;83.5
72919;SHT30;61063;55.700;26.994;2023-01-08T17:29:52;-4.7;83.5
72919;SHT30;61063;55.700;26.994;2023-01-08T17:35:02;-4.6;83.3
72919;SHT30;61063;55.700;26.994;2023-01-08T17:40:02;-4.6;83.4
72919;SHT30;61063;55.700;26.994;2023-01-08T17:45:24;-4.6;83.5
72919;SHT30;61063;55.700;26.994;2023-01-08T17:50:24;-4.6;83.4
72919;SHT30;61063;55.700;26.994;2023-01-08T17:55:02;-4.6;83.4
72919;SHT30;61063;55.700;26.994;2023-01-08T18:00:17;-4.7;83.6
72919;SHT30;61063;55.700;26.994;2023-01-08T18:04:54;-4.7;83.6
72919;SHT30;61063;55.700;26.994;2023-01-08T18:10:26;-4.7;83.5
72919;SHT30;61063;55.700;26.994;2023-01-08T18:15:24;-4.7;83.5
72919;SHT30;61063;55.700;26.994;2023-01-08T18:19:42;-4.7;83.5
72919;SHT30;61063;55.700;26.994;2023-01-08T18:24:50;-4.7;83.4
72919;SHT30;61063;55.700;26.994;2023-01-08T18:29:48;-4.7;83.4
72919;SHT30;61063;55.700;26.994;2023-01-08T18:35:18;-4.8;83.4
72919;SHT30;61063;55.700;26.994;2023-01-08T18:40:20;-4.8;83.5
72919;SHT30;61063;55.700;26.994;2023-01-08T18:45:16;-4.8;83.4
72919;SHT30;61063;55.700;26.994;2023-01-08T18:50:14;-4.8;83.3
72919;SHT30;61063;55.700;26.994;2023-01-08T18:54:42;-4.8;83.3
72919;SHT30;61063;55.700;26.994;2023-01-08T19:00:26;-4.8;83.4
72919;SHT30;61063;55.700;26.994;2023-01-08T19:05:22;-4.8;83.4
72919;SHT30;61063;55.700;26.994;2023-01-08T19:09:41;-4.8;83.4
72919;SHT30;61063;55.700;26.994;2023-01-08T19:15:02;-4.8;83.3
72919;SHT30;61063;55.700;26.994;2023-01-08T19:20:22;-4.8;83.3
72919;SHT30;61063;55.700;26.994;2023-01-08T19:25:24;-4.8;83.4
72919;SHT30;61063;55.700;26.994;2023-01-08T19:29:54;-4.8;83.4
72919;SHT30;61063;55.700;26.994;2023-01-08T19:35:14;-4.8;83.3
72919;SHT30;61063;55.700;26.994;2023-01-08T19:40:05;-4.8;83.3
72919;SHT30;61063;55.700;26.994;2023-01-08T19:44:50;-4.8;83.2
72919;SHT30;61063;55.700;26.994;2023-01-08T19:50:02;-4.8;83.3
72919;SHT30;61063;55.700;26.994;2023-01-08T19:55:12;-4.8;83.2
72919;SHT30;61063;55.700;26.994;2023-01-08T20:00:24;-4.8;83.1
72919;SHT30;61063;55.700;26.994;2023-01-08T20:05:26;-4.8;83.2
72919;SHT30;61063;55.700;26.994;2023-01-08T20:10:20;-4.8;83.2
72919;SHT30;61063;55.700;26.994;2023-01-08T20:15:22;-4.8;83.1
72919;SHT30;61063;55.700;26.994;2023-01-08T20:19:50;-4.8;83.1
72919;SHT30;61063;55.700;26.994;2023-01-08T20:24:56;-4.8;83.2
72919;SHT30;61063;55.700;26.994;2023-01-08T20:30:05;-4.7;83.2
72919;SHT30;61063;55.700;26.994;2023-01-08T20:34:54;-4.7;83.1
72919;SHT30;61063;55.700;26.994;2023-01-08T20:40:12;-4.7;83.1
72919;SHT30;61063;55.700;26.994;2023-01-08T20:45:12;-4.7;83
72919;SHT30;61063;55.700;26.994;2023-01-08T20:50:24;-4.7;83.1
72919;SHT30;61063;55.700;26.994;2023-01-08T20:54:42;-4.7;83.1
72919;SHT30;61063;55.700;26.994;2023-01-08T21:00:14;-4.8;83.3
72919;SHT30;61063;55.700;26.994;2023-01-08T21:05:24;-4.8;83.3
72919;SHT30;61063;55.700;26.994;2023-01-08T21:10:18;-4.8;83.3
72919;SHT30;61063;55.700;26.994;2023-01-08T21:15:05;-4.8;83.3
72919;SHT30;61063;55.700;26.994;2023-01-08T21:20:07;-4.8;83.3
72919;SHT30;61063;55.700;26.994;2023-01-08T21:25:28;-4.7;83
72919;SHT30;61063;55.700;26.994;2023-01-08T21:30:18;-4.6;82.9
72919;SHT30;61063;55.700;26.994;2023-01-08T21:35:16;-4.6;82.8
72919;SHT30;61063;55.700;26.994;2023-01-08T21:40:26;-4.6;82.6
72919;SHT30;61063;55.700;26.994;2023-01-08T21:45:28;-4.7;82.8
72919;SHT30;61063;55.700;26.994;2023-01-08T21:50:14;-4.8;83.1
72919;SHT30;61063;55.700;26.994;2023-01-08T21:54:54;-4.8;83.1
72919;SHT30;61063;55.700;26.994;2023-01-08T21:59:42;-4.7;83.2
72919;SHT30;61063;55.700;26.994;2023-01-08T22:05:18;-4.7;83.1
72919;SHT30;61063;55.700;26.994;2023-01-08T22:09:53;-4.7;83.1
72919;SHT30;61063;55.700;26.994;2023-01-08T22:15:28;-4.7;83.2
72919;SHT30;61063;55.700;26.994;2023-01-08T22:20:16;-4.7;83.1
72919;SHT30;61063;55.700;26.994;2023-01-08T22:25:16;-4.6;83
72919;SHT30;61063;55.700;26.994;2023-01-08T22:29:52;-4.6;83
72919;SHT30;61063;55.700;26.994;2023-01-08T22:35:04;-4.6;82.8
72919;SHT30;61063;55.700;26.994;2023-01-08T22:40:14;-4.7;82.9
72919;SHT30;61063;55.700;26.994;2023-01-08T22:45:24;-4.7;83
72919;SHT30;61063;55.700;26.994;2023-01-08T22:49:54;-4.7;83
72919;SHT30;61063;55.700;26.994;2023-01-08T22:55:16;-4.7;83
72919;SHT30;61063;55.700;26.994;2023-01-08T23:00:03;-4.7;83
72919;SHT30;61063;55.700;26.994;2023-01-08T23:05:26;-4.7;83.1
72919;SHT30;61063;55.700;26.994;2023-01-08T23:10:22;-4.7;83.3
72919;SHT30;61063;55.700;26.994;2023-01-08T23:15:12;-4.7;83.4
72919;SHT30;61063;55.700;26.994;2023-01-08T23:20:24;-4.7;83.4
72919;SHT30;61063;55.700;26.994;2023-01-08T23:25:24;-4.8;83.5
72919;SHT30;61063;55.700;26.994;2023-01-08T23:30:24;-4.7;83.7
72919;SHT30;61063;55.700;26.994;2023-01-08T23:35:22;-4.7;83.6
72919;SHT30;61063;55.700;26.994;2023-01-08T23:40:00;-4.7;83.6
72919;SHT30;61063;55.700;26.994;2023-01-08T23:45:14;-4.7;83.5
72919;SHT30;61063;55.700;26.994;2023-01-08T23:49:52;-4.7;83.5
72919;SHT30;61063;55.700;26.994;2023-01-08T23:54:50;-4.7;83.5
